Time;durP1;ratioP1;P1;durP2;ratioP2;P2;SDS_P1;SDS_P2;PMS_P1;PMS_P2;Temp;Humidity;BMP_temperature;BMP_pressure;BME280_temperature;BME280_humidity;BME280_pressure;Samples;Min_cycle;Max_cycle;Signal;HPM_P1;HPM_P2
2021/12/24 00:01:22;;;;;;;14.73;9.23;;;4.30;96.30;;;;;;4881282;29;20210;-78
2021/12/24 00:03:48;;;;;;;16.37;10.53;;;4.30;96.30;;;;;;4880014;29;20480;-78
2021/12/24 00:06:14;;;;;;;14.97;9.17;;;4.30;96.30;;;;;;4879773;29;20178;-79
2021/12/24 00:08:40;;;;;;;16.33;10.47;;;4.40;96.30;;;;;;4879983;29;20558;-78
2021/12/24 00:11:07;;;;;;;11.57;7.80;;;4.50;96.30;;;;;;4879717;29;20564;-77
2021/12/24 00:13:40;;;;;;;15.03;10.30;;;4.50;96.30;;;;;;4881076;29;20201;-75
2021/12/24 00:16:16;;;;;;;14.53;9.10;;;4.50;96.30;;;;;;4880810;29;20414;-74
2021/12/24 00:18:49;;;;;;;13.03;9.47;;;4.50;96.30;;;;;;4880942;29;20476;-74
2021/12/24 00:35:07;;;;;;;12.40;8.20;;;4.60;96.30;;;;;;4880818;29;20421;-75
2021/12/24 00:37:35;;;;;;;9.93;7.60;;;4.70;96.30;;;;;;4880675;29;21103;-74
2021/12/24 00:42:32;;;;;;;10.10;6.90;;;4.70;96.30;;;;;;4880658;29;20441;-74
2021/12/24 00:44:58;;;;;;;9.10;7.30;;;4.80;96.30;;;;;;4880511;29;20418;-75
2021/12/24 00:47:25;;;;;;;10.53;6.30;;;4.80;96.30;;;;;;4880373;29;20178;-74
2021/12/24 00:49:51;;;;;;;9.33;6.20;;;4.90;96.30;;;;;;4880539;29;20253;-74
2021/12/24 00:55:03;;;;;;;8.47;6.47;;;4.90;96.30;;;;;;4880391;29;20433;-76
2021/12/24 00:57:51;;;;;;;8.93;6.07;;;4.80;96.30;;;;;;4880169;29;20547;-75
2021/12/24 05:04:33;;;;;;;3.60;3.30;;;5.30;96.30;;;;;;4880436;29;20430;-80
2021/12/24 05:07:09;;;;;;;4.37;3.97;;;5.30;96.30;;;;;;4878319;29;20190;-79
2021/12/24 05:09:39;;;;;;;5.50;3.93;;;5.30;96.30;;;;;;4878391;29;20425;-79
2021/12/24 05:12:05;;;;;;;4.50;4.10;;;5.30;96.30;;;;;;4878645;29;20486;-79
2021/12/24 05:14:31;;;;;;;9.93;5.07;;;5.30;96.30;;;;;;4883096;29;20422;-80
2021/12/24 05:17:17;;;;;;;4.50;4.10;;;5.40;96.30;;;;;;4888506;29;20438;-80
2021/12/24 05:22:30;;;;;;;4.63;4.17;;;5.40;96.30;;;;;;4882222;29;20432;-78
2021/12/24 05:24:56;;;;;;;5.80;4.53;;;5.30;96.30;;;;;;4880674;29;20509;-78
2021/12/24 05:27:22;;;;;;;4.70;4.30;;;5.40;96.30;;;;;;4879105;29;20474;-78
2021/12/24 05:29:47;;;;;;;5.50;5.00;;;5.40;96.30;;;;;;4881248;29;20422;-80
2021/12/24 05:32:13;;;;;;;4.40;4.00;;;5.40;96.30;;;;;;4880500;29;20201;-79
2021/12/24 05:34:39;;;;;;;6.23;4.80;;;5.40;96.30;;;;;;4880297;29;20233;-79
2021/12/24 05:37:04;;;;;;;6.50;5.03;;;5.40;96.30;;;;;;4879685;29;20771;-80
2021/12/24 05:39:30;;;;;;;4.80;4.17;;;5.50;96.30;;;;;;4880006;29;20201;-80
2021/12/24 05:41:56;;;;;;;4.67;4.27;;;5.40;96.30;;;;;;4879173;29;20201;-79
2021/12/24 05:44:21;;;;;;;4.87;4.40;;;5.40;96.30;;;;;;4878135;29;20189;-80
2021/12/24 05:46:47;;;;;;;6.20;4.97;;;5.40;96.30;;;;;;4878774;29;20693;-78
2021/12/24 05:49:14;;;;;;;6.03;5.43;;;5.50;96.30;;;;;;4878027;29;20674;-78
2021/12/24 05:51:40;;;;;;;5.20;4.70;;;5.50;96.30;;;;;;4878010;29;20208;-79
2021/12/24 05:54:05;;;;;;;5.37;4.87;;;5.50;96.30;;;;;;4879238;29;20417;-80
2021/12/24 05:56:31;;;;;;;5.33;4.70;;;5.50;96.30;;;;;;4877588;29;20229;-78
2021/12/24 05:58:56;;;;;;;5.00;4.50;;;5.50;96.30;;;;;;4878937;29;20201;-78
2021/12/24 06:01:23;;;;;;;4.83;4.40;;;5.60;96.30;;;;;;4879032;29;20227;-79
2021/12/24 06:03:49;;;;;;;8.30;5.27;;;5.60;96.30;;;;;;4881298;29;20261;-79
2021/12/24 06:06:15;;;;;;;5.83;5.00;;;5.60;96.30;;;;;;4878822;29;20423;-78
2021/12/24 06:08:40;;;;;;;4.93;4.40;;;5.60;96.30;;;;;;4879140;29;20521;-78
2021/12/24 06:11:06;;;;;;;5.63;4.37;;;5.70;96.30;;;;;;4877552;29;20552;-78
2021/12/24 06:13:32;;;;;;;5.23;4.07;;;5.70;96.30;;;;;;4879023;29;20190;-78
2021/12/24 06:15:58;;;;;;;3.63;3.23;;;5.70;96.30;;;;;;4878372;29;20201;-78
2021/12/24 06:18:25;;;;;;;4.57;4.17;;;5.70;96.30;;;;;;4877905;29;20458;-78
2021/12/24 06:20:52;;;;;;;5.67;4.40;;;5.80;96.30;;;;;;4878648;29;20194;-78
2021/12/24 06:23:20;;;;;;;5.90;5.30;;;5.80;96.30;;;;;;4878228;29;20422;-78
2021/12/24 06:25:46;;;;;;;5.80;5.30;;;5.80;96.30;;;;;;4878137;29;20501;-80
2021/12/24 06:28:11;;;;;;;6.37;4.13;;;5.80;96.30;;;;;;4877421;29;20539;-78
2021/12/24 06:30:38;;;;;;;4.93;4.40;;;5.80;96.30;;;;;;4877476;29;20810;-79
2021/12/24 06:33:03;;;;;;;9.50;6.00;;;5.80;96.30;;;;;;4841139;29;20238;-79
2021/12/24 06:35:29;;;;;;;5.33;4.80;;;5.70;96.30;;;;;;4862278;29;20895;-79
2021/12/24 06:37:56;;;;;;;5.67;5.07;;;5.70;96.30;;;;;;4891362;29;20181;-79
2021/12/24 06:40:22;;;;;;;8.77;5.27;;;5.70;96.30;;;;;;4892130;29;20209;-79
2021/12/24 06:42:48;;;;;;;5.60;5.10;;;5.80;96.30;;;;;;4892816;29;20422;-79
2021/12/24 06:45:19;;;;;;;6.80;5.13;;;5.80;96.30;;;;;;4865413;29;20434;-78
2021/12/24 06:47:44;;;;;;;5.87;5.00;;;5.80;96.30;;;;;;4859019;29;20182;-78
2021/12/24 06:50:10;;;;;;;5.37;4.10;;;5.80;96.30;;;;;;4858555;29;20487;-78
2021/12/24 06:52:35;;;;;;;6.63;5.30;;;5.80;96.30;;;;;;4859873;29;20267;-79
2021/12/24 06:55:01;;;;;;;5.47;4.30;;;5.80;96.30;;;;;;4858421;29;20654;-78
2021/12/24 06:57:26;;;;;;;6.60;4.70;;;5.80;96.30;;;;;;4859715;29;20185;-79
2021/12/24 06:59:52;;;;;;;5.27;4.77;;;5.90;96.30;;;;;;4859666;29;20671;-78
2021/12/24 07:02:17;;;;;;;6.63;5.50;;;5.80;96.30;;;;;;4858306;29;20210;-78
2021/12/24 07:04:43;;;;;;;6.00;5.40;;;5.90;96.30;;;;;;4859939;29;20208;-79
2021/12/24 07:07:08;;;;;;;4.63;4.20;;;5.90;96.30;;;;;;4858462;29;20643;-79
2021/12/24 07:09:34;;;;;;;5.07;4.40;;;5.80;96.30;;;;;;4860176;29;20642;-79
2021/12/24 07:12:00;;;;;;;6.70;4.93;;;5.90;96.30;;;;;;4858617;29;20297;-78
2021/12/24 07:14:25;;;;;;;7.73;5.53;;;5.90;96.30;;;;;;4859864;29;20241;-78
2021/12/24 07:16:52;;;;;;;7.90;5.50;;;5.90;96.30;;;;;;4859620;29;20198;-78
2021/12/24 07:19:17;;;;;;;8.13;5.57;;;5.90;96.30;;;;;;4860043;29;20284;-78
2021/12/24 07:21:43;;;;;;;4.60;4.20;;;5.90;96.30;;;;;;4858459;29;21026;-79
2021/12/24 07:24:09;;;;;;;5.60;4.57;;;5.90;96.30;;;;;;4856694;29;20187;-79
2021/12/24 07:26:35;;;;;;;5.07;4.20;;;5.90;96.30;;;;;;4850364;29;20255;-79
2021/12/24 07:29:01;;;;;;;5.93;5.00;;;5.90;96.30;;;;;;4840107;29;20483;-79
2021/12/24 07:31:27;;;;;;;4.50;4.10;;;5.90;96.30;;;;;;4840760;29;20444;-80
2021/12/24 07:33:52;;;;;;;6.10;5.00;;;5.90;96.30;;;;;;4846047;29;20438;-80
2021/12/24 07:36:18;;;;;;;7.00;4.40;;;5.80;96.30;;;;;;4844123;29;20187;-79
2021/12/24 07:38:43;;;;;;;4.97;4.23;;;5.80;96.30;;;;;;4843690;29;20225;-79
2021/12/24 07:41:09;;;;;;;5.87;4.17;;;5.90;96.30;;;;;;4843482;29;20700;-80
2021/12/24 07:43:35;;;;;;;4.17;3.77;;;5.90;96.30;;;;;;4844556;29;20176;-81
2021/12/24 07:46:00;;;;;;;6.23;4.23;;;5.80;96.30;;;;;;4844494;29;20378;-80
2021/12/24 07:48:28;;;;;;;4.90;3.40;;;5.80;96.30;;;;;;4844590;29;20179;-79
2021/12/24 07:53:21;;;;;;;4.53;4.13;;;5.80;96.30;;;;;;4845112;29;20457;-81
2021/12/24 07:55:46;;;;;;;4.93;3.90;;;5.80;96.30;;;;;;4853660;29;20427;-81
2021/12/24 07:58:17;;;;;;;6.80;3.37;;;5.80;96.30;;;;;;4889250;29;20256;-79
2021/12/24 08:00:43;;;;;;;5.30;4.53;;;5.80;96.30;;;;;;4862943;29;20683;-79
2021/12/24 08:03:09;;;;;;;3.33;2.90;;;5.80;96.30;;;;;;4862031;29;20776;-78
2021/12/24 08:05:39;;;;;;;5.10;3.47;;;5.90;96.30;;;;;;4862367;29;20434;-78
2021/12/24 08:08:06;;;;;;;3.90;3.43;;;5.90;96.30;;;;;;4860929;29;20670;-78
2021/12/24 08:10:33;;;;;;;3.80;3.30;;;5.90;96.30;;;;;;4877509;29;20473;-77
2021/12/24 08:12:59;;;;;;;4.20;3.80;;;5.90;96.30;;;;;;4876569;29;20427;-78
2021/12/24 08:15:25;;;;;;;5.23;4.30;;;5.90;96.30;;;;;;4883097;29;20948;-80
2021/12/24 08:17:50;;;;;;;6.10;3.70;;;5.90;96.30;;;;;;4862505;29;20686;-81
2021/12/24 08:20:21;;;;;;;6.37;4.03;;;6.00;96.30;;;;;;4869506;29;20666;-80
2021/12/24 08:22:46;;;;;;;4.13;3.73;;;6.00;96.30;;;;;;4868772;29;20174;-80
2021/12/24 08:25:12;;;;;;;5.53;4.70;;;6.10;96.30;;;;;;4868379;29;20928;-80
2021/12/24 08:27:41;;;;;;;4.10;3.80;;;6.20;96.30;;;;;;4884371;29;20181;-80
2021/12/24 08:30:07;;;;;;;3.73;3.40;;;6.20;96.30;;;;;;4881626;29;20551;-80
2021/12/24 08:32:37;;;;;;;3.40;3.00;;;6.20;96.30;;;;;;4867442;29;20444;-80
2021/12/24 08:35:04;;;;;;;3.93;3.53;;;6.20;96.30;;;;;;4866716;29;20470;-80
2021/12/24 08:37:31;;;;;;;4.20;3.80;;;6.20;96.30;;;;;;4869256;29;20426;-80
2021/12/24 08:39:56;;;;;;;3.87;3.40;;;6.20;96.30;;;;;;4868744;29;20510;-78
2021/12/24 08:42:22;;;;;;;4.33;3.50;;;6.30;96.30;;;;;;4883208;29;20450;-78
2021/12/24 08:44:47;;;;;;;5.37;3.67;;;6.30;96.30;;;;;;4870884;29;20178;-78
2021/12/24 08:47:13;;;;;;;4.10;3.30;;;6.30;96.30;;;;;;4872447;29;20177;-77
2021/12/24 08:49:38;;;;;;;3.93;3.40;;;6.40;96.30;;;;;;4868476;29;20709;-76
2021/12/24 08:52:04;;;;;;;3.97;3.47;;;6.40;96.30;;;;;;4866083;29;20246;-78
2021/12/24 08:54:30;;;;;;;3.40;3.10;;;6.40;96.30;;;;;;4873238;29;20188;-77
2021/12/24 08:56:56;;;;;;;4.40;3.33;;;6.40;96.30;;;;;;4886143;29;20421;-77
2021/12/24 08:59:23;;;;;;;5.30;3.60;;;6.30;96.30;;;;;;4868669;29;20214;-78
2021/12/24 09:01:49;;;;;;;3.10;2.80;;;6.40;96.30;;;;;;4867037;29;20468;-77
2021/12/24 09:04:15;;;;;;;5.93;3.27;;;6.40;96.30;;;;;;4883219;29;20510;-76
2021/12/24 09:06:41;;;;;;;4.50;3.73;;;6.50;96.30;;;;;;4867557;29;20521;-75
2021/12/24 09:09:07;;;;;;;4.93;3.10;;;6.50;96.30;;;;;;4869315;29;20284;-76
2021/12/24 09:11:34;;;;;;;5.87;3.30;;;6.50;96.30;;;;;;4869259;29;20226;-77
2021/12/24 09:14:00;;;;;;;2.93;2.60;;;6.50;96.30;;;;;;4868931;29;20473;-76
2021/12/24 09:16:25;;;;;;;3.57;3.00;;;6.50;96.30;;;;;;4870102;29;20458;-76
2021/12/24 09:18:59;;;;;;;4.13;3.10;;;6.60;96.30;;;;;;4865979;29;20225;-77
2021/12/24 09:21:25;;;;;;;2.90;2.50;;;6.60;96.30;;;;;;4860861;29;20206;-76
2021/12/24 09:23:51;;;;;;;3.70;2.87;;;6.60;96.30;;;;;;4859499;29;20431;-76
2021/12/24 09:26:23;;;;;;;2.67;2.43;;;6.50;96.30;;;;;;4861249;29;20662;-77
2021/12/24 09:28:49;;;;;;;8.43;2.80;;;6.70;96.30;;;;;;4860295;29;20415;-74
2021/12/24 09:31:14;;;;;;;3.20;2.30;;;6.70;96.30;;;;;;4861623;29;20847;-76
2021/12/24 09:33:40;;;;;;;4.60;2.67;;;6.70;96.30;;;;;;4868151;29;20549;-77
2021/12/24 09:36:06;;;;;;;2.93;2.73;;;6.60;96.30;;;;;;4865195;29;20262;-76
2021/12/24 09:38:32;;;;;;;2.83;2.40;;;6.60;96.30;;;;;;4866169;29;20670;-76
2021/12/24 09:40:58;;;;;;;2.50;2.30;;;6.60;96.30;;;;;;4866909;29;20451;-77
2021/12/24 09:43:24;;;;;;;2.67;2.23;;;6.60;96.30;;;;;;4864936;29;20186;-75
2021/12/24 09:45:50;;;;;;;3.33;2.27;;;6.60;96.30;;;;;;4868018;29;20178;-78
2021/12/24 09:48:16;;;;;;;3.97;2.40;;;6.60;96.30;;;;;;4864196;29;20434;-76
2021/12/24 09:50:42;;;;;;;2.80;2.40;;;6.60;96.30;;;;;;4867477;29;20202;-76
2021/12/24 09:53:08;;;;;;;2.43;2.23;;;6.60;96.30;;;;;;4867944;29;20434;-75
2021/12/24 09:55:33;;;;;;;4.10;2.60;;;6.60;96.30;;;;;;4864722;29;20190;-78
2021/12/24 09:57:59;;;;;;;4.43;2.37;;;6.50;96.30;;;;;;4880981;29;20185;-77
2021/12/24 10:00:25;;;;;;;5.00;2.37;;;6.50;96.30;;;;;;4866576;29;20213;-77
2021/12/24 10:02:53;;;;;;;2.80;2.17;;;6.50;96.30;;;;;;4873713;29;20217;-77
2021/12/24 10:05:29;;;;;;;4.43;2.20;;;6.50;96.30;;;;;;4866964;29;20427;-77
2021/12/24 10:08:00;;;;;;;1.90;1.70;;;6.50;96.30;;;;;;4862160;29;20418;-78
2021/12/24 10:10:28;;;;;;;2.50;1.93;;;6.60;96.30;;;;;;4863105;29;20439;-77
2021/12/24 10:12:54;;;;;;;4.00;2.20;;;6.60;96.30;;;;;;4880770;29;20486;-78
2021/12/24 10:15:20;;;;;;;2.90;2.37;;;6.60;96.30;;;;;;4877485;29;20513;-75
2021/12/24 10:17:46;;;;;;;2.97;2.33;;;6.60;96.30;;;;;;4867113;29;20659;-77
2021/12/24 10:20:19;;;;;;;2.43;1.97;;;6.60;96.30;;;;;;4881193;29;20210;-76
2021/12/24 10:22:52;;;;;;;3.03;1.93;;;6.50;96.30;;;;;;4863766;29;20598;-76
2021/12/24 10:25:25;;;;;;;3.57;2.23;;;6.60;96.30;;;;;;4864221;29;20438;-76
2021/12/24 10:27:51;;;;;;;2.73;2.30;;;6.60;96.30;;;;;;4863098;29;20513;-75
2021/12/24 10:30:27;;;;;;;2.90;2.40;;;6.50;96.30;;;;;;4864497;29;20579;-75
2021/12/24 10:32:55;;;;;;;8.10;2.60;;;6.50;96.30;;;;;;4863002;29;20242;-76
2021/12/24 10:35:27;;;;;;;3.37;2.80;;;6.50;96.30;;;;;;4876214;29;21082;-76
2021/12/24 10:38:11;;;;;;;3.30;2.27;;;6.60;96.30;;;;;;4859043;29;20454;-76
2021/12/24 10:40:47;;;;;;;4.10;2.10;;;6.50;96.30;;;;;;4864960;29;20462;-78
2021/12/24 10:43:28;;;;;;;3.30;2.70;;;6.60;96.30;;;;;;4868221;29;20415;-77
2021/12/24 10:46:13;;;;;;;2.90;2.60;;;6.60;96.30;;;;;;4859463;29;20483;-77
2021/12/24 10:48:58;;;;;;;3.27;2.30;;;6.60;96.30;;;;;;4862265;29;20458;-78
2021/12/24 10:51:52;;;;;;;2.33;2.00;;;6.60;96.30;;;;;;4871874;29;20450;-78
2021/12/24 10:54:09;;;;;;;3.53;1.53;;;6.70;96.30;;;;;;4862783;29;20422;-78
2021/12/24 10:56:35;;;;;;;2.77;1.80;;;6.80;96.30;;;;;;4859731;29;20419;-77
2021/12/24 10:59:01;;;;;;;5.47;2.23;;;6.90;96.30;;;;;;4859928;29;20570;-77
2021/12/24 11:01:27;;;;;;;4.00;2.33;;;7.00;96.30;;;;;;4869155;29;20217;-77
2021/12/24 11:03:52;;;;;;;4.73;2.50;;;7.10;96.30;;;;;;4859420;29;20419;-77
2021/12/24 11:06:21;;;;;;;2.33;2.00;;;7.10;96.30;;;;;;4859989;29;20183;-78
2021/12/24 11:08:53;;;;;;;6.67;2.00;;;7.30;96.30;;;;;;4868679;29;20272;-76
2021/12/24 11:11:19;;;;;;;2.47;1.70;;;7.30;96.30;;;;;;4868782;29;21012;-77
2021/12/24 11:13:47;;;;;;;2.50;2.27;;;7.30;96.30;;;;;;4869811;29;20419;-76
2021/12/24 11:16:18;;;;;;;3.33;2.33;;;7.30;96.30;;;;;;4868229;29;20189;-77
2021/12/24 11:18:53;;;;;;;2.70;1.73;;;7.30;96.30;;;;;;4867085;29;20569;-76
2021/12/24 11:21:21;;;;;;;2.67;2.00;;;7.30;96.30;;;;;;4869719;29;20430;-77
2021/12/24 11:23:47;;;;;;;6.57;3.20;;;7.30;96.30;;;;;;4866996;29;20435;-76
2021/12/24 11:26:22;;;;;;;4.90;1.90;;;7.20;96.30;;;;;;4865698;29;20418;-76
2021/12/24 11:28:48;;;;;;;3.40;2.23;;;7.20;96.30;;;;;;4863372;29;20846;-76
2021/12/24 11:31:20;;;;;;;4.30;2.53;;;7.10;96.30;;;;;;4866354;29;20530;-76
2021/12/24 11:33:46;;;;;;;2.17;1.87;;;7.10;96.30;;;;;;4877693;29;20458;-76
2021/12/24 11:36:15;;;;;;;2.43;2.23;;;7.10;96.30;;;;;;4867552;29;20899;-77
2021/12/24 11:38:43;;;;;;;3.20;1.90;;;7.00;96.30;;;;;;4868879;29;20459;-76
2021/12/24 11:41:13;;;;;;;2.27;2.00;;;7.00;96.30;;;;;;4867415;29;20449;-76
2021/12/24 11:43:40;;;;;;;3.57;2.07;;;6.90;96.30;;;;;;4867198;29;21255;-76
2021/12/24 11:46:08;;;;;;;2.30;1.83;;;6.90;96.30;;;;;;4867702;29;20930;-76
2021/12/24 11:48:35;;;;;;;4.27;2.63;;;6.90;96.30;;;;;;4865634;29;20795;-76
2021/12/24 11:51:04;;;;;;;3.07;2.77;;;6.80;96.30;;;;;;4872896;29;20530;-76
2021/12/24 11:53:31;;;;;;;7.27;2.87;;;6.80;96.30;;;;;;4865632;29;20927;-76
2021/12/24 11:56:04;;;;;;;3.03;2.40;;;6.80;96.30;;;;;;4868184;29;20820;-75
2021/12/24 11:58:32;;;;;;;5.50;2.50;;;6.80;96.30;;;;;;4864626;29;20415;-75
2021/12/24 12:06:05;;;;;;;2.93;2.07;;;6.70;96.30;;;;;;4882196;29;20542;-76
2021/12/24 12:08:33;;;;;;;2.73;2.07;;;6.60;96.30;;;;;;4882744;29;20430;-76
2021/12/24 12:11:01;;;;;;;5.03;2.10;;;6.60;96.30;;;;;;4881366;29;20453;-76
2021/12/24 12:13:38;;;;;;;3.67;2.50;;;6.60;96.30;;;;;;4865362;29;20419;-76
2021/12/24 12:16:05;;;;;;;7.50;2.80;;;6.70;96.30;;;;;;4865225;29;20871;-76
2021/12/24 12:18:33;;;;;;;2.50;1.50;;;6.70;96.30;;;;;;4862285;29;20435;-76
2021/12/24 12:21:14;;;;;;;3.00;2.00;;;6.70;96.30;;;;;;4862297;29;20443;-76
2021/12/24 12:24:56;;;;;;;4.00;2.43;;;6.70;96.30;;;;;;4867770;29;20487;-76
2021/12/24 12:26:52;;;;;;;5.40;2.47;;;6.60;96.30;;;;;;4861603;29;20925;-76
2021/12/24 12:29:25;;;;;;;3.43;2.40;;;6.60;96.30;;;;;;4873468;29;20425;-76
2021/12/24 12:31:56;;;;;;;2.50;2.27;;;6.50;96.30;;;;;;4862227;29;20483;-76
2021/12/24 12:34:42;;;;;;;4.87;2.50;;;6.50;96.30;;;;;;4862266;29;20403;-76
2021/12/24 12:37:29;;;;;;;2.13;1.60;;;6.50;96.30;;;;;;4862143;29;20419;-76
2021/12/24 12:39:54;;;;;;;4.73;2.23;;;6.50;96.30;;;;;;4864340;29;20491;-76
2021/12/24 12:42:23;;;;;;;2.67;2.47;;;6.40;96.30;;;;;;4864545;29;20439;-76
2021/12/24 12:44:53;;;;;;;3.20;2.83;;;6.40;96.30;;;;;;4870214;29;20182;-76
2021/12/24 12:47:27;;;;;;;3.77;2.17;;;6.40;96.30;;;;;;4879501;29;20417;-77
2021/12/24 12:50:13;;;;;;;3.13;1.93;;;6.40;96.30;;;;;;4874131;29;20514;-77
2021/12/24 12:52:41;;;;;;;3.83;1.90;;;6.50;96.30;;;;;;4843664;29;20406;-77
2021/12/24 12:55:27;;;;;;;2.80;2.00;;;6.40;96.30;;;;;;4871525;29;20415;-77
2021/12/24 12:58:25;;;;;;;5.67;2.50;;;6.40;96.30;;;;;;4873685;29;20427;-77
2021/12/24 13:01:11;;;;;;;3.73;2.57;;;6.40;96.30;;;;;;4860477;29;20451;-77
2021/12/24 13:03:55;;;;;;;3.20;2.70;;;6.40;96.30;;;;;;4860584;29;20411;-77
2021/12/24 13:06:36;;;;;;;3.33;2.33;;;6.30;96.30;;;;;;4861723;29;20566;-77
2021/12/24 13:09:05;;;;;;;3.03;2.50;;;6.30;96.30;;;;;;4860412;29;20527;-76
2021/12/24 13:11:42;;;;;;;5.30;3.10;;;6.30;96.30;;;;;;4861483;29;20457;-76
2021/12/24 13:14:09;;;;;;;4.60;2.13;;;6.30;96.30;;;;;;4871334;29;20523;-77
2021/12/24 13:16:43;;;;;;;4.40;2.90;;;6.30;96.30;;;;;;4871903;29;20458;-77
2021/12/24 13:25:02;;;;;;;3.00;2.70;;;6.20;96.30;;;;;;4861006;29;20471;-76
2021/12/24 13:27:32;;;;;;;3.93;3.50;;;6.10;96.30;;;;;;4870094;29;20471;-75
2021/12/24 13:30:05;;;;;;;4.03;3.60;;;6.10;96.30;;;;;;4864360;29;20434;-76
2021/12/24 13:32:31;;;;;;;4.83;3.40;;;6.00;96.30;;;;;;4866742;29;20447;-76
2021/12/24 13:34:57;;;;;;;4.33;2.93;;;6.00;96.30;;;;;;4865644;29;20435;-76
2021/12/24 13:37:29;;;;;;;3.40;2.63;;;6.00;96.30;;;;;;4868967;29;20186;-75
2021/12/24 13:39:54;;;;;;;4.33;2.90;;;6.10;96.30;;;;;;4860897;29;20459;-75
2021/12/24 13:42:20;;;;;;;4.00;3.20;;;6.00;96.30;;;;;;4866409;29;21044;-75
2021/12/24 13:44:48;;;;;;;7.43;3.00;;;6.00;96.30;;;;;;4868813;29;20186;-75
2021/12/24 13:47:29;;;;;;;6.77;3.60;;;5.90;96.30;;;;;;4865548;29;20635;-75
2021/12/24 13:50:10;;;;;;;4.90;3.57;;;5.90;96.30;;;;;;4863872;29;20845;-75
2021/12/24 13:55:26;;;;;;;4.73;3.20;;;5.90;96.30;;;;;;4865596;29;20516;-75
2021/12/24 13:57:53;;;;;;;6.60;4.13;;;5.90;96.30;;;;;;4863224;29;20487;-77
2021/12/24 14:00:20;;;;;;;5.27;3.60;;;5.90;96.30;;;;;;4866890;29;20822;-77
2021/12/24 14:02:56;;;;;;;4.43;3.17;;;5.90;96.30;;;;;;4861459;29;20426;-77
2021/12/24 14:05:23;;;;;;;6.33;3.30;;;5.80;96.30;;;;;;4867602;29;20426;-78
2021/12/24 14:08:16;;;;;;;8.20;3.57;;;5.80;96.30;;;;;;4865079;29;20503;-79
2021/12/24 14:10:43;;;;;;;6.03;3.50;;;5.80;96.30;;;;;;4865087;29;20442;-80
2021/12/24 14:13:16;;;;;;;5.30;3.50;;;5.80;96.30;;;;;;4871853;29;20510;-81
2021/12/24 14:16:02;;;;;;;4.20;3.10;;;5.80;96.30;;;;;;4868742;29;20908;-79
2021/12/24 14:18:56;;;;;;;4.00;3.10;;;5.80;96.30;;;;;;4866369;29;20415;-79
2021/12/24 14:21:49;;;;;;;6.40;3.70;;;5.70;96.30;;;;;;4864890;29;20439;-78
2021/12/24 14:24:18;;;;;;;5.13;4.03;;;5.70;96.30;;;;;;4851777;29;20438;-78
2021/12/24 14:27:04;;;;;;;5.00;3.43;;;5.60;96.30;;;;;;4865031;29;20914;-78
2021/12/24 14:29:36;;;;;;;4.80;3.70;;;5.60;96.30;;;;;;4862690;29;20446;-77
2021/12/24 14:32:12;;;;;;;10.30;4.73;;;5.60;96.30;;;;;;4865354;29;20463;-79
2021/12/24 14:34:41;;;;;;;8.87;4.17;;;5.50;96.30;;;;;;4862330;29;20795;-79
2021/12/24 14:37:27;;;;;;;8.50;4.27;;;5.60;96.30;;;;;;4863015;29;20423;-78
2021/12/24 14:40:06;;;;;;;8.20;3.60;;;5.60;96.30;;;;;;4863513;29;20457;-77
2021/12/24 14:42:40;;;;;;;5.53;3.80;;;5.60;96.30;;;;;;4863193;29;20862;-77
2021/12/24 14:45:16;;;;;;;7.50;4.10;;;5.60;96.30;;;;;;4864271;29;20419;-77
2021/12/24 14:47:53;;;;;;;9.30;4.50;;;5.60;96.30;;;;;;4864815;29;20426;-78
2021/12/24 14:50:19;;;;;;;5.37;3.87;;;5.50;96.30;;;;;;4864563;29;20434;-77
2021/12/24 14:52:44;;;;;;;4.73;3.77;;;5.50;96.30;;;;;;4863527;29;20435;-78
2021/12/24 14:55:17;;;;;;;5.03;3.13;;;5.50;96.30;;;;;;4863910;29;20185;-78
2021/12/24 14:57:52;;;;;;;5.63;3.80;;;5.50;96.30;;;;;;4866711;29;20182;-78
2021/12/24 15:00:22;;;;;;;5.73;4.17;;;5.50;96.30;;;;;;4866500;29;20514;-78
2021/12/24 15:02:48;;;;;;;6.40;3.70;;;5.50;96.30;;;;;;4859145;29;20435;-77
2021/12/24 15:05:25;;;;;;;5.57;3.47;;;5.50;96.30;;;;;;4863779;29;20451;-77
2021/12/24 15:07:50;;;;;;;4.90;3.63;;;5.50;96.30;;;;;;4867477;29;20442;-78
2021/12/24 15:10:17;;;;;;;5.03;3.00;;;5.40;96.30;;;;;;4865456;29;20427;-80
2021/12/24 15:12:50;;;;;;;3.97;2.70;;;5.40;96.30;;;;;;4870149;29;20182;-78
2021/12/24 15:15:17;;;;;;;3.40;2.63;;;5.40;96.30;;;;;;4863278;29;21215;-79
2021/12/24 15:17:46;;;;;;;7.20;3.70;;;5.50;96.30;;;;;;4864757;29;20470;-77
2021/12/24 15:20:12;;;;;;;6.70;3.00;;;5.50;96.30;;;;;;4876621;29;20545;-77
2021/12/24 15:22:38;;;;;;;6.27;3.20;;;5.40;96.30;;;;;;4863418;29;20446;-78
2021/12/24 15:25:06;;;;;;;3.53;2.90;;;5.50;96.30;;;;;;4866327;29;20472;-77
2021/12/24 15:27:34;;;;;;;6.73;2.87;;;5.50;96.30;;;;;;4862555;29;20510;-77
2021/12/24 15:30:01;;;;;;;6.23;3.00;;;5.60;96.30;;;;;;4865305;29;20430;-79
2021/12/24 15:32:26;;;;;;;5.17;3.10;;;5.60;96.30;;;;;;4862832;29;20458;-78
2021/12/24 15:34:52;;;;;;;6.70;3.37;;;5.60;96.30;;;;;;4863442;29;20438;-78
2021/12/24 15:37:18;;;;;;;6.23;2.93;;;5.70;96.30;;;;;;4867759;29;20270;-79
2021/12/24 15:39:43;;;;;;;4.87;3.07;;;5.60;96.30;;;;;;4871173;29;20259;-80
2021/12/24 15:42:09;;;;;;;6.77;3.07;;;5.70;96.30;;;;;;4866045;29;20201;-79
2021/12/24 15:44:41;;;;;;;5.73;3.20;;;5.70;96.30;;;;;;4862721;29;20237;-79
2021/12/24 15:47:07;;;;;;;4.73;2.57;;;5.70;96.30;;;;;;4862408;29;20954;-78
2021/12/24 15:49:33;;;;;;;4.87;2.87;;;5.60;96.30;;;;;;4859364;29;20514;-78
2021/12/24 15:51:58;;;;;;;6.70;2.60;;;5.60;96.30;;;;;;4858287;29;20209;-78
2021/12/24 15:54:24;;;;;;;4.90;2.60;;;5.70;96.30;;;;;;4862326;29;20555;-78
2021/12/24 15:56:49;;;;;;;3.07;2.37;;;5.70;96.30;;;;;;4861479;29;20547;-78
2021/12/24 15:59:15;;;;;;;2.83;2.40;;;5.70;96.30;;;;;;4862097;29;20239;-78
2021/12/24 16:01:40;;;;;;;5.70;2.50;;;5.70;96.30;;;;;;4860620;29;20246;-78
2021/12/24 16:04:05;;;;;;;5.60;2.67;;;5.80;96.30;;;;;;4860575;29;20656;-78
2021/12/24 16:06:31;;;;;;;8.70;3.03;;;5.80;96.30;;;;;;4861770;29;20219;-78
2021/12/24 16:08:56;;;;;;;4.00;2.70;;;5.70;96.30;;;;;;4860444;29;20666;-78
2021/12/24 16:11:22;;;;;;;5.50;3.47;;;5.70;96.30;;;;;;4861478;29;20209;-78
2021/12/24 16:13:47;;;;;;;5.50;2.43;;;5.80;96.30;;;;;;4861596;29;20230;-78
2021/12/24 16:16:15;;;;;;;5.20;2.47;;;5.70;96.30;;;;;;4862688;29;20182;-78
2021/12/24 16:18:40;;;;;;;4.67;2.23;;;5.70;96.30;;;;;;4861120;29;20225;-78
2021/12/24 16:21:07;;;;;;;7.83;2.63;;;5.80;96.30;;;;;;4862660;29;20467;-78
2021/12/24 16:23:33;;;;;;;4.00;2.63;;;5.80;96.30;;;;;;4861214;29;20414;-78
2021/12/24 16:25:59;;;;;;;3.93;2.43;;;5.80;96.30;;;;;;4866153;29;20267;-79
2021/12/24 16:28:26;;;;;;;10.30;2.73;;;5.80;96.30;;;;;;4877554;29;20497;-78
2021/12/24 16:30:51;;;;;;;8.43;3.00;;;5.80;96.30;;;;;;4866301;29;20740;-78
2021/12/24 16:33:17;;;;;;;5.43;2.73;;;5.90;96.30;;;;;;4866939;29;20522;-77
2021/12/24 16:35:42;;;;;;;7.97;2.30;;;5.90;96.30;;;;;;4865414;29;20265;-76
2021/12/24 16:38:08;;;;;;;7.00;2.50;;;5.80;96.30;;;;;;4864826;29;20256;-77
2021/12/24 16:40:35;;;;;;;4.70;2.53;;;5.80;96.30;;;;;;4867573;29;20206;-77
2021/12/24 16:43:01;;;;;;;4.60;2.30;;;5.80;96.30;;;;;;4869205;29;20655;-77
2021/12/24 16:45:30;;;;;;;6.23;2.37;;;5.80;96.30;;;;;;4868721;29;20502;-78
2021/12/24 16:47:57;;;;;;;4.33;2.10;;;5.90;96.30;;;;;;4868491;29;20175;-77
2021/12/24 16:50:23;;;;;;;3.17;1.90;;;5.80;96.30;;;;;;4865318;29;20427;-77
2021/12/24 16:52:51;;;;;;;6.53;2.20;;;5.90;96.30;;;;;;4866679;29;20927;-78
2021/12/24 16:55:21;;;;;;;5.30;2.40;;;5.90;96.30;;;;;;4866831;29;20453;-77
2021/12/24 16:57:47;;;;;;;4.13;2.33;;;5.90;96.30;;;;;;4870285;29;20418;-77
2021/12/24 17:00:13;;;;;;;3.97;2.23;;;5.90;96.30;;;;;;4865038;29;20458;-77
2021/12/24 17:02:38;;;;;;;6.33;2.90;;;5.90;96.30;;;;;;4865789;29;20193;-77
2021/12/24 17:05:06;;;;;;;4.20;2.20;;;5.90;96.30;;;;;;4865713;29;20194;-77
2021/12/24 17:07:31;;;;;;;7.33;2.50;;;5.90;96.30;;;;;;4861182;29;20175;-77
2021/12/24 17:09:57;;;;;;;6.63;2.30;;;5.90;96.30;;;;;;4878081;29;20430;-76
2021/12/24 17:12:22;;;;;;;2.33;2.03;;;5.90;96.30;;;;;;4879959;29;20562;-78
2021/12/24 17:14:55;;;;;;;3.60;2.20;;;5.90;96.30;;;;;;4879957;29;20181;-78
2021/12/24 17:17:27;;;;;;;6.00;2.20;;;6.00;96.30;;;;;;4879820;29;20702;-78
2021/12/24 17:19:55;;;;;;;3.73;2.07;;;6.00;96.30;;;;;;4868942;29;20994;-77
2021/12/24 17:22:21;;;;;;;4.90;2.70;;;6.00;96.30;;;;;;4861393;29;20514;-77
2021/12/24 17:24:47;;;;;;;6.30;2.30;;;6.00;96.30;;;;;;4859935;29;20534;-78
2021/12/24 17:27:12;;;;;;;7.07;2.27;;;6.00;96.30;;;;;;4861027;29;20193;-77
2021/12/24 17:29:38;;;;;;;6.03;2.10;;;6.00;96.30;;;;;;4861397;29;20174;-78
2021/12/24 17:32:05;;;;;;;3.43;1.93;;;5.90;96.30;;;;;;4860716;29;20194;-77
2021/12/24 17:34:30;;;;;;;4.43;2.83;;;6.00;96.30;;;;;;4861093;29;20451;-77
2021/12/24 17:36:56;;;;;;;4.70;2.30;;;6.00;96.30;;;;;;4861041;29;20458;-78
2021/12/24 17:39:22;;;;;;;5.10;2.10;;;6.00;96.30;;;;;;4861015;29;20234;-78
2021/12/24 17:41:47;;;;;;;5.83;1.93;;;6.00;96.30;;;;;;4861041;29;20194;-77
2021/12/24 17:44:15;;;;;;;4.50;2.73;;;6.00;96.30;;;;;;4861499;29;20546;-78
2021/12/24 17:46:41;;;;;;;7.93;2.47;;;6.00;96.30;;;;;;4857788;29;20204;-77